sensor_id;sensor_type;location;lat;lon;timestamp;P1;durP1;ratioP1;P2;durP2;ratioP2
5127;SDS011;2582;48.770;9.190;2023-05-10T00:01:33;0.80;;;0.80;;
5127;SDS011;2582;48.770;9.190;2023-05-10T00:03:59;2.13;;;1.13;;
5127;SDS011;2582;48.770;9.190;2023-05-10T00:06:24;1.77;;;1.10;;
5127;SDS011;2582;48.770;9.190;2023-05-10T00:08:50;1.27;;;1.00;;
5127;SDS011;2582;48.770;9.190;2023-05-10T00:11:15;1.37;;;1.27;;
5127;SDS011;2582;48.770;9.190;2023-05-10T00:13:41;1.70;;;1.07;;
5127;SDS011;2582;48.770;9.190;2023-05-10T00:16:06;2.13;;;1.40;;
5127;SDS011;2582;48.770;9.190;2023-05-10T00:18:32;2.27;;;1.07;;
5127;SDS011;2582;48.770;9.190;2023-05-10T00:20:58;1.13;;;0.97;;
5127;SDS011;2582;48.770;9.190;2023-05-10T00:23:23;2.40;;;0.80;;
5127;SDS011;2582;48.770;9.190;2023-05-10T00:25:49;1.27;;;0.80;;
5127;SDS011;2582;48.770;9.190;2023-05-10T00:28:14;1.00;;;0.70;;
5127;SDS011;2582;48.770;9.190;2023-05-10T00:30:40;0.90;;;0.57;;
5127;SDS011;2582;48.770;9.190;2023-05-10T00:33:05;1.00;;;0.80;;
5127;SDS011;2582;48.770;9.190;2023-05-10T00:35:31;0.73;;;0.60;;
5127;SDS011;2582;48.770;9.190;2023-05-10T00:37:57;0.70;;;0.60;;
5127;SDS011;2582;48.770;9.190;2023-05-10T00:40:22;2.37;;;0.87;;
5127;SDS011;2582;48.770;9.190;2023-05-10T00:42:48;1.40;;;0.63;;
5127;SDS011;2582;48.770;9.190;2023-05-10T00:45:14;0.90;;;0.60;;
5127;SDS011;2582;48.770;9.190;2023-05-10T00:47:39;1.17;;;0.60;;
5127;SDS011;2582;48.770;9.190;2023-05-10T00:50:05;0.90;;;0.57;;
5127;SDS011;2582;48.770;9.190;2023-05-10T00:52:31;1.07;;;0.60;;
5127;SDS011;2582;48.770;9.190;2023-05-10T00:54:57;2.30;;;1.13;;
5127;SDS011;2582;48.770;9.190;2023-05-10T00:57:23;0.90;;;0.50;;
5127;SDS011;2582;48.770;9.190;2023-05-10T00:59:49;2.30;;;0.80;;
5127;SDS011;2582;48.770;9.190;2023-05-10T01:02:15;0.80;;;0.60;;
5127;SDS011;2582;48.770;9.190;2023-05-10T01:04:41;4.17;;;0.60;;
5127;SDS011;2582;48.770;9.190;2023-05-10T01:07:07;0.70;;;0.47;;
5127;SDS011;2582;48.770;9.190;2023-05-10T01:09:33;0.87;;;0.50;;
5127;SDS011;2582;48.770;9.190;2023-05-10T01:11:59;1.50;;;0.47;;
5127;SDS011;2582;48.770;9.190;2023-05-10T01:14:26;0.70;;;0.43;;
5127;SDS011;2582;48.770;9.190;2023-05-10T01:16:52;1.47;;;0.63;;
5127;SDS011;2582;48.770;9.190;2023-05-10T01:19:19;0.90;;;0.47;;
5127;SDS011;2582;48.770;9.190;2023-05-10T01:38:13;0.90;;;0.60;;
5127;SDS011;2582;48.770;9.190;2023-05-10T01:43:26;0.80;;;0.50;;
5127;SDS011;2582;48.770;9.190;2023-05-10T01:45:58;0.80;;;0.50;;
5127;SDS011;2582;48.770;9.190;2023-05-10T01:48:35;1.83;;;0.70;;
5127;SDS011;2582;48.770;9.190;2023-05-10T01:51:16;1.10;;;0.57;;
5127;SDS011;2582;48.770;9.190;2023-05-10T01:53:47;2.60;;;0.60;;
5127;SDS011;2582;48.770;9.190;2023-05-10T01:56:15;0.90;;;0.60;;
5127;SDS011;2582;48.770;9.190;2023-05-10T01:58:42;1.00;;;0.60;;
5127;SDS011;2582;48.770;9.190;2023-05-10T02:01:10;0.80;;;0.50;;
5127;SDS011;2582;48.770;9.190;2023-05-10T02:03:37;0.70;;;0.50;;
5127;SDS011;2582;48.770;9.190;2023-05-10T02:06:05;0.80;;;0.60;;
5127;SDS011;2582;48.770;9.190;2023-05-10T02:08:32;0.70;;;0.50;;
5127;SDS011;2582;48.770;9.190;2023-05-10T02:11:00;1.30;;;0.50;;
5127;SDS011;2582;48.770;9.190;2023-05-10T02:13:27;1.40;;;0.40;;
5127;SDS011;2582;48.770;9.190;2023-05-10T02:15:54;1.07;;;0.50;;
5127;SDS011;2582;48.770;9.190;2023-05-10T02:18:22;0.80;;;0.40;;
5127;SDS011;2582;48.770;9.190;2023-05-10T02:20:50;0.70;;;0.50;;
5127;SDS011;2582;48.770;9.190;2023-05-10T02:23:18;1.63;;;0.60;;
5127;SDS011;2582;48.770;9.190;2023-05-10T02:25:45;2.87;;;0.50;;
5127;SDS011;2582;48.770;9.190;2023-05-10T02:28:13;0.80;;;0.50;;
5127;SDS011;2582;48.770;9.190;2023-05-10T02:30:40;0.70;;;0.43;;
5127;SDS011;2582;48.770;9.190;2023-05-10T02:33:06;5.60;;;1.13;;
5127;SDS011;2582;48.770;9.190;2023-05-10T02:35:32;1.63;;;0.60;;
5127;SDS011;2582;48.770;9.190;2023-05-10T02:37:59;1.33;;;0.60;;
5127;SDS011;2582;48.770;9.190;2023-05-10T02:40:26;4.57;;;0.60;;
5127;SDS011;2582;48.770;9.190;2023-05-10T02:42:54;1.00;;;0.50;;
5127;SDS011;2582;48.770;9.190;2023-05-10T02:45:22;1.37;;;0.50;;
5127;SDS011;2582;48.770;9.190;2023-05-10T02:47:51;2.33;;;0.60;;
5127;SDS011;2582;48.770;9.190;2023-05-10T02:50:17;0.80;;;0.60;;
5127;SDS011;2582;48.770;9.190;2023-05-10T02:52:46;1.93;;;0.70;;
5127;SDS011;2582;48.770;9.190;2023-05-10T02:55:14;0.70;;;0.50;;
5127;SDS011;2582;48.770;9.190;2023-05-10T02:57:43;0.80;;;0.50;;
5127;SDS011;2582;48.770;9.190;2023-05-10T03:00:16;0.80;;;0.53;;
5127;SDS011;2582;48.770;9.190;2023-05-10T03:02:41;0.90;;;0.60;;
5127;SDS011;2582;48.770;9.190;2023-05-10T03:05:07;0.80;;;0.50;;
5127;SDS011;2582;48.770;9.190;2023-05-10T03:07:33;1.53;;;0.70;;
5127;SDS011;2582;48.770;9.190;2023-05-10T03:09:58;3.40;;;1.00;;
5127;SDS011;2582;48.770;9.190;2023-05-10T03:15:11;3.40;;;0.70;;
5127;SDS011;2582;48.770;9.190;2023-05-10T03:20:16;1.33;;;0.50;;
5127;SDS011;2582;48.770;9.190;2023-05-10T03:22:51;2.80;;;1.07;;
5127;SDS011;2582;48.770;9.190;2023-05-10T03:25:26;0.90;;;0.53;;
5127;SDS011;2582;48.770;9.190;2023-05-10T03:27:52;0.80;;;0.57;;
5127;SDS011;2582;48.770;9.190;2023-05-10T03:30:19;1.43;;;0.60;;
5127;SDS011;2582;48.770;9.190;2023-05-10T03:32:45;0.90;;;0.70;;
5127;SDS011;2582;48.770;9.190;2023-05-10T03:35:11;1.43;;;0.80;;
5127;SDS011;2582;48.770;9.190;2023-05-10T03:37:38;0.83;;;0.83;;
5127;SDS011;2582;48.770;9.190;2023-05-10T03:40:04;0.90;;;0.60;;
5127;SDS011;2582;48.770;9.190;2023-05-10T03:42:30;1.10;;;0.70;;
5127;SDS011;2582;48.770;9.190;2023-05-10T03:44:56;1.87;;;0.77;;
5127;SDS011;2582;48.770;9.190;2023-05-10T03:47:21;0.80;;;0.73;;
5127;SDS011;2582;48.770;9.190;2023-05-10T03:49:47;2.00;;;0.77;;
5127;SDS011;2582;48.770;9.190;2023-05-10T03:52:12;1.03;;;0.70;;
5127;SDS011;2582;48.770;9.190;2023-05-10T03:54:39;1.73;;;0.90;;
5127;SDS011;2582;48.770;9.190;2023-05-10T03:57:04;1.83;;;1.00;;
5127;SDS011;2582;48.770;9.190;2023-05-10T03:59:30;1.77;;;0.90;;
5127;SDS011;2582;48.770;9.190;2023-05-10T04:01:55;1.00;;;0.70;;
5127;SDS011;2582;48.770;9.190;2023-05-10T04:04:21;1.00;;;0.80;;
5127;SDS011;2582;48.770;9.190;2023-05-10T04:06:48;1.17;;;0.90;;
5127;SDS011;2582;48.770;9.190;2023-05-10T04:09:13;1.23;;;0.80;;
5127;SDS011;2582;48.770;9.190;2023-05-10T04:11:39;1.50;;;0.90;;
5127;SDS011;2582;48.770;9.190;2023-05-10T04:14:04;1.20;;;1.10;;
5127;SDS011;2582;48.770;9.190;2023-05-10T04:16:30;3.77;;;1.20;;
5127;SDS011;2582;48.770;9.190;2023-05-10T04:18:55;1.47;;;0.90;;
5127;SDS011;2582;48.770;9.190;2023-05-10T04:21:21;1.00;;;0.80;;
5127;SDS011;2582;48.770;9.190;2023-05-10T04:23:47;1.67;;;0.93;;
5127;SDS011;2582;48.770;9.190;2023-05-10T04:26:12;1.10;;;1.00;;
5127;SDS011;2582;48.770;9.190;2023-05-10T04:28:38;1.00;;;0.70;;
5127;SDS011;2582;48.770;9.190;2023-05-10T04:31:04;1.47;;;0.90;;
5127;SDS011;2582;48.770;9.190;2023-05-10T04:33:32;1.20;;;0.80;;
5127;SDS011;2582;48.770;9.190;2023-05-10T04:35:57;1.20;;;1.00;;
5127;SDS011;2582;48.770;9.190;2023-05-10T04:38:23;3.37;;;1.03;;
5127;SDS011;2582;48.770;9.190;2023-05-10T04:40:49;3.33;;;2.50;;
5127;SDS011;2582;48.770;9.190;2023-05-10T04:43:15;23.07;;;16.37;;
5127;SDS011;2582;48.770;9.190;2023-05-10T04:45:40;11.90;;;9.03;;
5127;SDS011;2582;48.770;9.190;2023-05-10T04:48:06;26.53;;;23.63;;
5127;SDS011;2582;48.770;9.190;2023-05-10T04:50:32;10.30;;;9.23;;
5127;SDS011;2582;48.770;9.190;2023-05-10T04:52:57;5.33;;;4.80;;
5127;SDS011;2582;48.770;9.190;2023-05-10T04:55:23;3.33;;;2.27;;
5127;SDS011;2582;48.770;9.190;2023-05-10T04:57:49;2.90;;;2.53;;
5127;SDS011;2582;48.770;9.190;2023-05-10T05:00:15;2.43;;;1.37;;
5127;SDS011;2582;48.770;9.190;2023-05-10T05:02:44;1.70;;;1.30;;
5127;SDS011;2582;48.770;9.190;2023-05-10T05:05:10;2.67;;;1.90;;
5127;SDS011;2582;48.770;9.190;2023-05-10T05:07:36;1.50;;;1.40;;
5127;SDS011;2582;48.770;9.190;2023-05-10T05:10:03;3.60;;;3.30;;
5127;SDS011;2582;48.770;9.190;2023-05-10T05:12:32;2.40;;;1.20;;
5127;SDS011;2582;48.770;9.190;2023-05-10T05:14:58;1.10;;;1.00;;
5127;SDS011;2582;48.770;9.190;2023-05-10T05:17:23;1.43;;;1.20;;
5127;SDS011;2582;48.770;9.190;2023-05-10T05:19:49;1.37;;;1.20;;
5127;SDS011;2582;48.770;9.190;2023-05-10T05:22:14;1.93;;;1.20;;
5127;SDS011;2582;48.770;9.190;2023-05-10T05:24:41;1.30;;;0.80;;
5127;SDS011;2582;48.770;9.190;2023-05-10T05:27:07;1.40;;;0.80;;
5127;SDS011;2582;48.770;9.190;2023-05-10T05:29:32;2.70;;;1.10;;
5127;SDS011;2582;48.770;9.190;2023-05-10T05:31:58;2.23;;;1.60;;
5127;SDS011;2582;48.770;9.190;2023-05-10T05:34:24;1.60;;;1.50;;
5127;SDS011;2582;48.770;9.190;2023-05-10T05:36:50;1.97;;;1.47;;
5127;SDS011;2582;48.770;9.190;2023-05-10T05:39:15;1.73;;;1.10;;
5127;SDS011;2582;48.770;9.190;2023-05-10T05:41:41;2.20;;;1.20;;
5127;SDS011;2582;48.770;9.190;2023-05-10T05:44:07;1.30;;;1.00;;
5127;SDS011;2582;48.770;9.190;2023-05-10T05:46:33;2.00;;;1.10;;
5127;SDS011;2582;48.770;9.190;2023-05-10T05:48:58;1.87;;;1.73;;
5127;SDS011;2582;48.770;9.190;2023-05-10T05:51:24;1.60;;;1.50;;
5127;SDS011;2582;48.770;9.190;2023-05-10T05:53:50;1.80;;;1.00;;
5127;SDS011;2582;48.770;9.190;2023-05-10T05:56:15;2.27;;;1.60;;
5127;SDS011;2582;48.770;9.190;2023-05-10T05:58:42;2.50;;;1.77;;
5127;SDS011;2582;48.770;9.190;2023-05-10T06:01:08;1.20;;;1.00;;
5127;SDS011;2582;48.770;9.190;2023-05-10T06:03:34;1.23;;;1.13;;
5127;SDS011;2582;48.770;9.190;2023-05-10T06:05:59;1.70;;;1.40;;
5127;SDS011;2582;48.770;9.190;2023-05-10T06:08:25;2.70;;;1.40;;
5127;SDS011;2582;48.770;9.190;2023-05-10T06:10:50;2.67;;;1.20;;
5127;SDS011;2582;48.770;9.190;2023-05-10T06:13:16;1.47;;;1.10;;
5127;SDS011;2582;48.770;9.190;2023-05-10T06:15:41;2.40;;;1.70;;
5127;SDS011;2582;48.770;9.190;2023-05-10T06:18:07;2.33;;;1.10;;
5127;SDS011;2582;48.770;9.190;2023-05-10T06:20:33;2.00;;;1.47;;
5127;SDS011;2582;48.770;9.190;2023-05-10T06:22:58;2.13;;;1.40;;
5127;SDS011;2582;48.770;9.190;2023-05-10T06:25:24;1.30;;;1.10;;
5127;SDS011;2582;48.770;9.190;2023-05-10T06:27:50;3.90;;;1.30;;
5127;SDS011;2582;48.770;9.190;2023-05-10T06:30:15;1.27;;;1.17;;
5127;SDS011;2582;48.770;9.190;2023-05-10T06:32:41;1.50;;;1.40;;
5127;SDS011;2582;48.770;9.190;2023-05-10T06:35:08;1.87;;;1.67;;
5127;SDS011;2582;48.770;9.190;2023-05-10T06:37:34;1.57;;;1.27;;
5127;SDS011;2582;48.770;9.190;2023-05-10T06:39:59;2.77;;;1.50;;
5127;SDS011;2582;48.770;9.190;2023-05-10T06:42:25;2.20;;;1.80;;
5127;SDS011;2582;48.770;9.190;2023-05-10T06:44:52;1.80;;;1.10;;
5127;SDS011;2582;48.770;9.190;2023-05-10T06:47:17;2.87;;;1.70;;
5127;SDS011;2582;48.770;9.190;2023-05-10T06:49:43;2.13;;;1.50;;
5127;SDS011;2582;48.770;9.190;2023-05-10T06:52:09;1.37;;;1.20;;
5127;SDS011;2582;48.770;9.190;2023-05-10T06:54:34;1.63;;;1.23;;
5127;SDS011;2582;48.770;9.190;2023-05-10T06:57:00;3.60;;;1.63;;
5127;SDS011;2582;48.770;9.190;2023-05-10T06:59:27;4.87;;;2.50;;
5127;SDS011;2582;48.770;9.190;2023-05-10T07:01:53;1.70;;;1.40;;
5127;SDS011;2582;48.770;9.190;2023-05-10T07:04:18;1.97;;;1.77;;
5127;SDS011;2582;48.770;9.190;2023-05-10T07:06:44;1.33;;;1.20;;
5127;SDS011;2582;48.770;9.190;2023-05-10T07:09:11;2.27;;;1.33;;
5127;SDS011;2582;48.770;9.190;2023-05-10T07:11:36;1.80;;;1.40;;
5127;SDS011;2582;48.770;9.190;2023-05-10T07:14:02;3.03;;;1.33;;
5127;SDS011;2582;48.770;9.190;2023-05-10T07:16:28;1.90;;;1.27;;
5127;SDS011;2582;48.770;9.190;2023-05-10T07:18:53;3.03;;;1.63;;
5127;SDS011;2582;48.770;9.190;2023-05-10T07:21:19;1.70;;;1.40;;
5127;SDS011;2582;48.770;9.190;2023-05-10T07:23:44;3.70;;;1.60;;
5127;SDS011;2582;48.770;9.190;2023-05-10T07:26:10;3.27;;;1.70;;
5127;SDS011;2582;48.770;9.190;2023-05-10T07:28:36;2.53;;;1.70;;
5127;SDS011;2582;48.770;9.190;2023-05-10T07:31:03;1.30;;;1.20;;
5127;SDS011;2582;48.770;9.190;2023-05-10T07:33:29;1.50;;;1.40;;
5127;SDS011;2582;48.770;9.190;2023-05-10T07:35:55;4.03;;;1.57;;
5127;SDS011;2582;48.770;9.190;2023-05-10T07:38:20;2.17;;;1.20;;
5127;SDS011;2582;48.770;9.190;2023-05-10T07:40:46;1.97;;;1.43;;
5127;SDS011;2582;48.770;9.190;2023-05-10T07:43:11;2.60;;;1.20;;
5127;SDS011;2582;48.770;9.190;2023-05-10T07:45:37;1.70;;;1.40;;
5127;SDS011;2582;48.770;9.190;2023-05-10T07:48:02;1.50;;;1.37;;
5127;SDS011;2582;48.770;9.190;2023-05-10T07:50:28;1.60;;;1.17;;
5127;SDS011;2582;48.770;9.190;2023-05-10T07:52:53;1.73;;;1.20;;
5127;SDS011;2582;48.770;9.190;2023-05-10T07:55:19;2.03;;;1.40;;
5127;SDS011;2582;48.770;9.190;2023-05-10T07:57:46;1.67;;;0.90;;
5127;SDS011;2582;48.770;9.190;2023-05-10T08:00:12;1.73;;;1.20;;
5127;SDS011;2582;48.770;9.190;2023-05-10T08:02:41;1.90;;;1.70;;
5127;SDS011;2582;48.770;9.190;2023-05-10T08:05:07;1.63;;;1.00;;
5127;SDS011;2582;48.770;9.190;2023-05-10T08:07:33;1.90;;;1.07;;
5127;SDS011;2582;48.770;9.190;2023-05-10T08:09:58;1.90;;;1.20;;
5127;SDS011;2582;48.770;9.190;2023-05-10T08:12:24;1.90;;;1.63;;
5127;SDS011;2582;48.770;9.190;2023-05-10T08:14:50;1.43;;;1.30;;
5127;SDS011;2582;48.770;9.190;2023-05-10T08:17:15;1.60;;;1.30;;
5127;SDS011;2582;48.770;9.190;2023-05-10T08:19:41;3.00;;;1.77;;
5127;SDS011;2582;48.770;9.190;2023-05-10T08:22:06;2.03;;;1.13;;
5127;SDS011;2582;48.770;9.190;2023-05-10T08:24:32;5.57;;;2.40;;
5127;SDS011;2582;48.770;9.190;2023-05-10T08:26:59;1.87;;;0.93;;
5127;SDS011;2582;48.770;9.190;2023-05-10T08:29:25;1.23;;;0.97;;
5127;SDS011;2582;48.770;9.190;2023-05-10T08:31:51;2.10;;;1.07;;
5127;SDS011;2582;48.770;9.190;2023-05-10T08:34:16;1.53;;;1.27;;
5127;SDS011;2582;48.770;9.190;2023-05-10T08:36:42;3.10;;;1.10;;
5127;SDS011;2582;48.770;9.190;2023-05-10T08:39:07;1.30;;;1.20;;
5127;SDS011;2582;48.770;9.190;2023-05-10T08:41:34;2.23;;;1.13;;
5127;SDS011;2582;48.770;9.190;2023-05-10T08:44:02;2.30;;;0.93;;
5127;SDS011;2582;48.770;9.190;2023-05-10T08:46:29;2.47;;;1.30;;
5127;SDS011;2582;48.770;9.190;2023-05-10T08:48:58;1.07;;;0.97;;
5127;SDS011;2582;48.770;9.190;2023-05-10T08:51:29;1.60;;;1.50;;
5127;SDS011;2582;48.770;9.190;2023-05-10T08:53:59;1.50;;;0.90;;
5127;SDS011;2582;48.770;9.190;2023-05-10T08:56:26;2.93;;;1.17;;
5127;SDS011;2582;48.770;9.190;2023-05-10T08:58:51;1.20;;;0.93;;
5127;SDS011;2582;48.770;9.190;2023-05-10T09:01:17;1.40;;;1.00;;
5127;SDS011;2582;48.770;9.190;2023-05-10T09:03:45;2.30;;;0.90;;
5127;SDS011;2582;48.770;9.190;2023-05-10T09:06:12;0.90;;;0.70;;
5127;SDS011;2582;48.770;9.190;2023-05-10T09:08:39;1.10;;;0.77;;
5127;SDS011;2582;48.770;9.190;2023-05-10T09:11:07;1.30;;;0.93;;
5127;SDS011;2582;48.770;9.190;2023-05-10T09:13:35;1.93;;;1.00;;
5127;SDS011;2582;48.770;9.190;2023-05-10T09:16:01;1.93;;;1.20;;
5127;SDS011;2582;48.770;9.190;2023-05-10T09:18:28;0.90;;;0.70;;
5127;SDS011;2582;48.770;9.190;2023-05-10T09:20:54;2.10;;;0.80;;
5127;SDS011;2582;48.770;9.190;2023-05-10T09:23:19;0.83;;;0.70;;
5127;SDS011;2582;48.770;9.190;2023-05-10T09:25:45;1.97;;;1.20;;
5127;SDS011;2582;48.770;9.190;2023-05-10T09:28:11;3.47;;;0.90;;
5127;SDS011;2582;48.770;9.190;2023-05-10T09:30:37;1.40;;;0.93;;
5127;SDS011;2582;48.770;9.190;2023-05-10T09:33:03;1.77;;;1.20;;
5127;SDS011;2582;48.770;9.190;2023-05-10T09:35:29;1.33;;;0.70;;
5127;SDS011;2582;48.770;9.190;2023-05-10T09:37:58;2.80;;;1.20;;
5127;SDS011;2582;48.770;9.190;2023-05-10T09:40:26;0.90;;;0.60;;
5127;SDS011;2582;48.770;9.190;2023-05-10T09:43:14;3.23;;;0.90;;
5127;SDS011;2582;48.770;9.190;2023-05-10T09:45:39;1.53;;;0.80;;
5127;SDS011;2582;48.770;9.190;2023-05-10T09:48:06;3.37;;;0.90;;
5127;SDS011;2582;48.770;9.190;2023-05-10T09:50:31;2.00;;;1.10;;
5127;SDS011;2582;48.770;9.190;2023-05-10T09:52:59;2.50;;;0.90;;
5127;SDS011;2582;48.770;9.190;2023-05-10T09:58:01;1.20;;;0.80;;
5127;SDS011;2582;48.770;9.190;2023-05-10T10:00:27;2.53;;;0.63;;
5127;SDS011;2582;48.770;9.190;2023-05-10T10:02:58;1.00;;;0.83;;
5127;SDS011;2582;48.770;9.190;2023-05-10T10:05:28;1.57;;;0.90;;
5127;SDS011;2582;48.770;9.190;2023-05-10T10:07:58;1.10;;;0.83;;
5127;SDS011;2582;48.770;9.190;2023-05-10T10:10:25;3.03;;;0.83;;
5127;SDS011;2582;48.770;9.190;2023-05-10T10:12:51;1.50;;;1.00;;
5127;SDS011;2582;48.770;9.190;2023-05-10T10:15:17;2.90;;;0.80;;
5127;SDS011;2582;48.770;9.190;2023-05-10T10:17:45;2.90;;;1.00;;
5127;SDS011;2582;48.770;9.190;2023-05-10T10:20:11;1.60;;;0.90;;
5127;SDS011;2582;48.770;9.190;2023-05-10T10:22:37;1.80;;;1.07;;
5127;SDS011;2582;48.770;9.190;2023-05-10T10:25:07;1.10;;;0.93;;
5127;SDS011;2582;48.770;9.190;2023-05-10T10:33:29;1.27;;;0.90;;
5127;SDS011;2582;48.770;9.190;2023-05-10T10:36:20;2.13;;;0.77;;
5127;SDS011;2582;48.770;9.190;2023-05-10T10:49:31;0.90;;;0.70;;
5127;SDS011;2582;48.770;9.190;2023-05-10T10:52:14;2.47;;;1.40;;
5127;SDS011;2582;48.770;9.190;2023-05-10T10:54:40;1.90;;;1.10;;
5127;SDS011;2582;48.770;9.190;2023-05-10T10:57:12;1.80;;;1.20;;
5127;SDS011;2582;48.770;9.190;2023-05-10T10:59:42;3.00;;;1.23;;
5127;SDS011;2582;48.770;9.190;2023-05-10T11:02:08;1.43;;;0.80;;
5127;SDS011;2582;48.770;9.190;2023-05-10T11:04:41;3.13;;;0.70;;
5127;SDS011;2582;48.770;9.190;2023-05-10T11:07:20;2.53;;;1.10;;
5127;SDS011;2582;48.770;9.190;2023-05-10T11:09:46;0.90;;;0.70;;
5127;SDS011;2582;48.770;9.190;2023-05-10T11:12:13;1.20;;;0.90;;
5127;SDS011;2582;48.770;9.190;2023-05-10T11:14:39;1.37;;;0.90;;
5127;SDS011;2582;48.770;9.190;2023-05-10T11:17:27;1.67;;;0.73;;
5127;SDS011;2582;48.770;9.190;2023-05-10T11:22:53;2.80;;;0.93;;
5127;SDS011;2582;48.770;9.190;2023-05-10T11:25:19;3.47;;;1.23;;
5127;SDS011;2582;48.770;9.190;2023-05-10T11:27:51;4.07;;;0.90;;
5127;SDS011;2582;48.770;9.190;2023-05-10T11:30:17;2.00;;;1.07;;
5127;SDS011;2582;48.770;9.190;2023-05-10T11:32:42;1.80;;;0.70;;
5127;SDS011;2582;48.770;9.190;2023-05-10T11:35:09;1.37;;;0.70;;
5127;SDS011;2582;48.770;9.190;2023-05-10T11:37:36;1.93;;;0.60;;
5127;SDS011;2582;48.770;9.190;2023-05-10T11:40:06;2.40;;;1.13;;
5127;SDS011;2582;48.770;9.190;2023-05-10T11:42:34;1.73;;;0.83;;
5127;SDS011;2582;48.770;9.190;2023-05-10T11:45:02;1.30;;;0.70;;
5127;SDS011;2582;48.770;9.190;2023-05-10T11:47:28;2.20;;;0.67;;
5127;SDS011;2582;48.770;9.190;2023-05-10T11:49:53;1.77;;;0.70;;
5127;SDS011;2582;48.770;9.190;2023-05-10T11:52:19;1.93;;;0.87;;
5127;SDS011;2582;48.770;9.190;2023-05-10T11:54:50;1.67;;;1.10;;
5127;SDS011;2582;48.770;9.190;2023-05-10T11:57:17;2.40;;;0.90;;
5127;SDS011;2582;48.770;9.190;2023-05-10T11:59:45;3.10;;;0.83;;
5127;SDS011;2582;48.770;9.190;2023-05-10T12:02:11;1.53;;;1.07;;
5127;SDS011;2582;48.770;9.190;2023-05-10T12:04:37;2.07;;;0.70;;
5127;SDS011;2582;48.770;9.190;2023-05-10T12:07:03;2.03;;;0.80;;
5127;SDS011;2582;48.770;9.190;2023-05-10T12:09:29;2.87;;;1.57;;
5127;SDS011;2582;48.770;9.190;2023-05-10T12:11:55;1.13;;;0.80;;
5127;SDS011;2582;48.770;9.190;2023-05-10T12:14:24;2.50;;;1.20;;
5127;SDS011;2582;48.770;9.190;2023-05-10T12:16:50;1.30;;;0.73;;
5127;SDS011;2582;48.770;9.190;2023-05-10T12:19:18;2.03;;;1.57;;
5127;SDS011;2582;48.770;9.190;2023-05-10T12:21:47;1.40;;;1.10;;
5127;SDS011;2582;48.770;9.190;2023-05-10T12:24:13;2.77;;;1.33;;
5127;SDS011;2582;48.770;9.190;2023-05-10T12:26:42;3.10;;;1.00;;
5127;SDS011;2582;48.770;9.190;2023-05-10T12:31:55;1.27;;;1.10;;
5127;SDS011;2582;48.770;9.190;2023-05-10T12:34:31;1.63;;;1.00;;
5127;SDS011;2582;48.770;9.190;2023-05-10T12:36:58;2.30;;;1.27;;
5127;SDS011;2582;48.770;9.190;2023-05-10T12:39:24;1.33;;;0.83;;
5127;SDS011;2582;48.770;9.190;2023-05-10T12:41:50;2.50;;;0.97;;
5127;SDS011;2582;48.770;9.190;2023-05-10T12:44:16;1.93;;;1.10;;
5127;SDS011;2582;48.770;9.190;2023-05-10T12:46:42;1.60;;;1.07;;
5127;SDS011;2582;48.770;9.190;2023-05-10T12:49:08;1.90;;;0.80;;
5127;SDS011;2582;48.770;9.190;2023-05-10T12:51:33;1.73;;;1.13;;
5127;SDS011;2582;48.770;9.190;2023-05-10T12:53:59;1.37;;;1.00;;
5127;SDS011;2582;48.770;9.190;2023-05-10T12:56:25;5.13;;;1.10;;
5127;SDS011;2582;48.770;9.190;2023-05-10T12:58:50;4.73;;;1.23;;
5127;SDS011;2582;48.770;9.190;2023-05-10T13:01:16;3.53;;;1.27;;
5127;SDS011;2582;48.770;9.190;2023-05-10T13:03:42;2.43;;;1.67;;
5127;SDS011;2582;48.770;9.190;2023-05-10T13:06:10;1.50;;;0.83;;
5127;SDS011;2582;48.770;9.190;2023-05-10T13:08:38;1.90;;;1.20;;
5127;SDS011;2582;48.770;9.190;2023-05-10T13:11:05;2.30;;;1.20;;
5127;SDS011;2582;48.770;9.190;2023-05-10T13:13:31;4.47;;;1.20;;
5127;SDS011;2582;48.770;9.190;2023-05-10T13:15:56;1.97;;;0.97;;
5127;SDS011;2582;48.770;9.190;2023-05-10T13:18:22;1.47;;;1.17;;
5127;SDS011;2582;48.770;9.190;2023-05-10T13:20:48;1.63;;;1.17;;
5127;SDS011;2582;48.770;9.190;2023-05-10T13:23:14;1.50;;;1.30;;
5127;SDS011;2582;48.770;9.190;2023-05-10T13:25:40;1.43;;;1.00;;
5127;SDS011;2582;48.770;9.190;2023-05-10T13:28:05;2.77;;;1.30;;
5127;SDS011;2582;48.770;9.190;2023-05-10T13:30:31;2.23;;;1.50;;
5127;SDS011;2582;48.770;9.190;2023-05-10T13:32:56;1.40;;;1.00;;
5127;SDS011;2582;48.770;9.190;2023-05-10T13:35:22;1.73;;;1.00;;
5127;SDS011;2582;48.770;9.190;2023-05-10T13:37:47;3.00;;;1.40;;
5127;SDS011;2582;48.770;9.190;2023-05-10T13:40:13;2.40;;;1.27;;
5127;SDS011;2582;48.770;9.190;2023-05-10T13:42:40;1.70;;;1.10;;
5127;SDS011;2582;48.770;9.190;2023-05-10T13:45:06;2.10;;;1.10;;
5127;SDS011;2582;48.770;9.190;2023-05-10T13:47:32;2.53;;;1.03;;
5127;SDS011;2582;48.770;9.190;2023-05-10T13:49:57;1.50;;;1.20;;
5127;SDS011;2582;48.770;9.190;2023-05-10T13:52:23;2.80;;;0.90;;
5127;SDS011;2582;48.770;9.190;2023-05-10T13:54:48;1.43;;;1.00;;
5127;SDS011;2582;48.770;9.190;2023-05-10T13:57:14;2.37;;;1.20;;
5127;SDS011;2582;48.770;9.190;2023-05-10T13:59:41;1.63;;;1.13;;
5127;SDS011;2582;48.770;9.190;2023-05-10T14:02:07;1.50;;;1.00;;
5127;SDS011;2582;48.770;9.190;2023-05-10T14:04:32;1.63;;;0.93;;
5127;SDS011;2582;48.770;9.190;2023-05-10T14:07:00;1.90;;;1.13;;
5127;SDS011;2582;48.770;9.190;2023-05-10T14:09:25;1.60;;;1.00;;
5127;SDS011;2582;48.770;9.190;2023-05-10T14:11:51;2.47;;;0.97;;
5127;SDS011;2582;48.770;9.190;2023-05-10T14:14:17;1.83;;;0.77;;
5127;SDS011;2582;48.770;9.190;2023-05-10T14:16:43;1.03;;;0.80;;
5127;SDS011;2582;48.770;9.190;2023-05-10T14:19:09;1.87;;;1.00;;
5127;SDS011;2582;48.770;9.190;2023-05-10T14:21:35;3.40;;;1.13;;
5127;SDS011;2582;48.770;9.190;2023-05-10T14:24:00;3.67;;;1.57;;
5127;SDS011;2582;48.770;9.190;2023-05-10T14:26:26;1.90;;;0.90;;
5127;SDS011;2582;48.770;9.190;2023-05-10T14:28:52;3.13;;;1.37;;
5127;SDS011;2582;48.770;9.190;2023-05-10T14:31:18;2.53;;;1.37;;
5127;SDS011;2582;48.770;9.190;2023-05-10T14:33:45;1.13;;;0.90;;
5127;SDS011;2582;48.770;9.190;2023-05-10T14:36:11;2.63;;;1.20;;
5127;SDS011;2582;48.770;9.190;2023-05-10T14:38:37;2.47;;;0.90;;
5127;SDS011;2582;48.770;9.190;2023-05-10T14:41:03;1.77;;;1.07;;
5127;SDS011;2582;48.770;9.190;2023-05-10T14:43:28;3.13;;;1.30;;
5127;SDS011;2582;48.770;9.190;2023-05-10T14:45:55;1.17;;;0.80;;
5127;SDS011;2582;48.770;9.190;2023-05-10T14:48:20;2.90;;;1.20;;
5127;SDS011;2582;48.770;9.190;2023-05-10T14:50:46;2.47;;;1.97;;
5127;SDS011;2582;48.770;9.190;2023-05-10T14:53:12;3.10;;;2.60;;
5127;SDS011;2582;48.770;9.190;2023-05-10T14:55:37;3.47;;;1.63;;
5127;SDS011;2582;48.770;9.190;2023-05-10T14:58:03;2.97;;;1.33;;
5127;SDS011;2582;48.770;9.190;2023-05-10T15:00:30;5.40;;;1.80;;
5127;SDS011;2582;48.770;9.190;2023-05-10T15:02:56;2.33;;;1.00;;
5127;SDS011;2582;48.770;9.190;2023-05-10T15:05:22;1.20;;;0.90;;
5127;SDS011;2582;48.770;9.190;2023-05-10T15:07:47;3.37;;;1.10;;
5127;SDS011;2582;48.770;9.190;2023-05-10T15:10:13;1.80;;;1.20;;
5127;SDS011;2582;48.770;9.190;2023-05-10T15:12:39;1.30;;;0.80;;
5127;SDS011;2582;48.770;9.190;2023-05-10T15:15:05;1.20;;;0.90;;
5127;SDS011;2582;48.770;9.190;2023-05-10T15:17:31;1.60;;;0.90;;
5127;SDS011;2582;48.770;9.190;2023-05-10T15:19:57;1.60;;;1.17;;
5127;SDS011;2582;48.770;9.190;2023-05-10T15:22:22;2.77;;;0.83;;
5127;SDS011;2582;48.770;9.190;2023-05-10T15:24:48;1.67;;;0.80;;
5127;SDS011;2582;48.770;9.190;2023-05-10T15:27:14;1.30;;;0.80;;
5127;SDS011;2582;48.770;9.190;2023-05-10T15:29:39;2.10;;;1.27;;
5127;SDS011;2582;48.770;9.190;2023-05-10T15:32:05;1.40;;;0.80;;
5127;SDS011;2582;48.770;9.190;2023-05-10T15:34:31;2.03;;;0.90;;
5127;SDS011;2582;48.770;9.190;2023-05-10T15:36:57;4.20;;;1.80;;
5127;SDS011;2582;48.770;9.190;2023-05-10T15:39:22;2.20;;;0.87;;
5127;SDS011;2582;48.770;9.190;2023-05-10T15:41:48;1.33;;;1.10;;
5127;SDS011;2582;48.770;9.190;2023-05-10T15:44:13;1.50;;;1.00;;
5127;SDS011;2582;48.770;9.190;2023-05-10T15:46:39;2.63;;;0.87;;
5127;SDS011;2582;48.770;9.190;2023-05-10T15:49:04;1.70;;;1.00;;
5127;SDS011;2582;48.770;9.190;2023-05-10T15:51:31;1.40;;;0.77;;
5127;SDS011;2582;48.770;9.190;2023-05-10T15:53:57;3.00;;;0.80;;
5127;SDS011;2582;48.770;9.190;2023-05-10T15:56:23;1.17;;;0.90;;
5127;SDS011;2582;48.770;9.190;2023-05-10T15:58:49;1.40;;;0.73;;
5127;SDS011;2582;48.770;9.190;2023-05-10T16:01:15;1.97;;;0.93;;